Terminal Aerodrome Forecast
Issued by NWS Topeka, KS

Home | Current Version | Previous Version | Graphics & Text | Print | Product List | Glossary On
Versions: 1 2 3 4 5 6 7 8 9 10 11 12 13 14 15 16 17 18 19 20 21 22
000
FTUS43 KTOP 041257 AAB
TAFTOP
TAF AMD
KTOP 041257Z 0413/0512 00000KT 1/2SM FG SKC
      TEMPO 0413/0414 2SM BR
     FM041400 VRB02KT P6SM SKC
     FM041600 14006KT P6SM SKC=

USA.gov is the U.S. government's official web portal to all federal, state and local government web resources and services.